sensor_id;sensor_type;location;lat;lon;timestamp;P1;durP1;ratioP1;P2;durP2;ratioP2
16890;SDS011;8562;52.246;20.966;2022-08-01T00:00:16;4.87;;;2.90;;
16890;SDS011;8562;52.246;20.966;2022-08-01T00:02:42;3.10;;;2.00;;
16890;SDS011;8562;52.246;20.966;2022-08-01T00:05:09;3.80;;;2.10;;
16890;SDS011;8562;52.246;20.966;2022-08-01T00:07:36;2.40;;;2.20;;
16890;SDS011;8562;52.246;20.966;2022-08-01T00:10:06;5.33;;;2.50;;
16890;SDS011;8562;52.246;20.966;2022-08-01T00:12:33;2.77;;;2.23;;
16890;SDS011;8562;52.246;20.966;2022-08-01T00:14:59;3.40;;;2.20;;
16890;SDS011;8562;52.246;20.966;2022-08-01T00:17:25;2.47;;;2.27;;
16890;SDS011;8562;52.246;20.966;2022-08-01T00:19:52;2.47;;;2.27;;
16890;SDS011;8562;52.246;20.966;2022-08-01T00:22:18;4.40;;;2.60;;
16890;SDS011;8562;52.246;20.966;2022-08-01T00:24:44;4.97;;;2.30;;
16890;SDS011;8562;52.246;20.966;2022-08-01T00:27:10;5.00;;;1.63;;
16890;SDS011;8562;52.246;20.966;2022-08-01T00:29:36;5.37;;;2.13;;
16890;SDS011;8562;52.246;20.966;2022-08-01T00:32:02;2.50;;;2.30;;
16890;SDS011;8562;52.246;20.966;2022-08-01T00:34:29;2.33;;;2.07;;
16890;SDS011;8562;52.246;20.966;2022-08-01T00:36:55;3.43;;;2.07;;
16890;SDS011;8562;52.246;20.966;2022-08-01T00:39:21;4.97;;;2.80;;
16890;SDS011;8562;52.246;20.966;2022-08-01T00:41:47;2.10;;;1.90;;
16890;SDS011;8562;52.246;20.966;2022-08-01T00:44:13;4.30;;;2.47;;
16890;SDS011;8562;52.246;20.966;2022-08-01T00:46:39;3.50;;;2.20;;
16890;SDS011;8562;52.246;20.966;2022-08-01T00:49:06;2.27;;;2.13;;
16890;SDS011;8562;52.246;20.966;2022-08-01T00:51:32;1.90;;;1.80;;
16890;SDS011;8562;52.246;20.966;2022-08-01T00:53:59;2.37;;;1.90;;
16890;SDS011;8562;52.246;20.966;2022-08-01T00:56:25;3.90;;;2.20;;
16890;SDS011;8562;52.246;20.966;2022-08-01T00:58:52;3.10;;;2.40;;
16890;SDS011;8562;52.246;20.966;2022-08-01T01:01:18;3.90;;;2.73;;
16890;SDS011;8562;52.246;20.966;2022-08-01T01:03:46;2.97;;;2.00;;
16890;SDS011;8562;52.246;20.966;2022-08-01T01:08:43;2.57;;;1.90;;
16890;SDS011;8562;52.246;20.966;2022-08-01T01:11:44;3.33;;;2.17;;
16890;SDS011;8562;52.246;20.966;2022-08-01T01:14:04;2.27;;;2.17;;
16890;SDS011;8562;52.246;20.966;2022-08-01T01:16:30;2.97;;;2.63;;
16890;SDS011;8562;52.246;20.966;2022-08-01T01:19:00;3.00;;;2.50;;
16890;SDS011;8562;52.246;20.966;2022-08-01T01:22:13;3.97;;;1.70;;
16890;SDS011;8562;52.246;20.966;2022-08-01T01:24:34;3.17;;;2.07;;
16890;SDS011;8562;52.246;20.966;2022-08-01T01:29:50;6.30;;;2.07;;
16890;SDS011;8562;52.246;20.966;2022-08-01T01:32:18;4.23;;;2.07;;
16890;SDS011;8562;52.246;20.966;2022-08-01T01:34:45;2.63;;;2.43;;
16890;SDS011;8562;52.246;20.966;2022-08-01T01:37:17;3.13;;;2.83;;
16890;SDS011;8562;52.246;20.966;2022-08-01T01:39:44;2.50;;;2.30;;
16890;SDS011;8562;52.246;20.966;2022-08-01T01:42:11;2.27;;;2.03;;
16890;SDS011;8562;52.246;20.966;2022-08-01T01:44:38;6.00;;;2.83;;
16890;SDS011;8562;52.246;20.966;2022-08-01T01:47:05;3.83;;;2.30;;
16890;SDS011;8562;52.246;20.966;2022-08-01T01:49:32;2.83;;;2.43;;
16890;SDS011;8562;52.246;20.966;2022-08-01T01:51:58;2.70;;;2.50;;
16890;SDS011;8562;52.246;20.966;2022-08-01T01:54:37;4.47;;;2.27;;
16890;SDS011;8562;52.246;20.966;2022-08-01T01:57:05;2.10;;;1.90;;
16890;SDS011;8562;52.246;20.966;2022-08-01T01:59:32;2.97;;;2.47;;
16890;SDS011;8562;52.246;20.966;2022-08-01T02:02:02;2.20;;;2.10;;
16890;SDS011;8562;52.246;20.966;2022-08-01T02:04:28;3.37;;;2.63;;
16890;SDS011;8562;52.246;20.966;2022-08-01T02:06:55;3.57;;;2.20;;
16890;SDS011;8562;52.246;20.966;2022-08-01T02:09:21;2.23;;;1.80;;
16890;SDS011;8562;52.246;20.966;2022-08-01T02:11:49;3.83;;;2.40;;
16890;SDS011;8562;52.246;20.966;2022-08-01T02:14:15;4.63;;;2.30;;
16890;SDS011;8562;52.246;20.966;2022-08-01T02:16:44;5.73;;;2.17;;
16890;SDS011;8562;52.246;20.966;2022-08-01T02:19:10;2.33;;;2.17;;
16890;SDS011;8562;52.246;20.966;2022-08-01T02:21:41;2.40;;;2.20;;
16890;SDS011;8562;52.246;20.966;2022-08-01T02:24:14;4.73;;;2.13;;
16890;SDS011;8562;52.246;20.966;2022-08-01T02:26:44;7.10;;;2.57;;
16890;SDS011;8562;52.246;20.966;2022-08-01T02:29:13;2.30;;;2.03;;
16890;SDS011;8562;52.246;20.966;2022-08-01T02:31:40;3.13;;;2.17;;
16890;SDS011;8562;52.246;20.966;2022-08-01T02:34:10;7.33;;;2.47;;
16890;SDS011;8562;52.246;20.966;2022-08-01T02:36:38;2.87;;;2.53;;
16890;SDS011;8562;52.246;20.966;2022-08-01T02:39:07;3.77;;;2.10;;
16890;SDS011;8562;52.246;20.966;2022-08-01T02:41:35;2.70;;;2.50;;
16890;SDS011;8562;52.246;20.966;2022-08-01T02:44:05;2.60;;;2.20;;
16890;SDS011;8562;52.246;20.966;2022-08-01T02:46:36;2.80;;;2.50;;
16890;SDS011;8562;52.246;20.966;2022-08-01T02:49:03;4.63;;;2.13;;
16890;SDS011;8562;52.246;20.966;2022-08-01T02:51:31;5.37;;;2.93;;
16890;SDS011;8562;52.246;20.966;2022-08-01T02:53:58;2.33;;;1.97;;
16890;SDS011;8562;52.246;20.966;2022-08-01T02:56:25;2.47;;;2.27;;
16890;SDS011;8562;52.246;20.966;2022-08-01T02:59:09;4.33;;;2.57;;
16890;SDS011;8562;52.246;20.966;2022-08-01T03:01:36;2.93;;;2.63;;
16890;SDS011;8562;52.246;20.966;2022-08-01T03:04:03;2.33;;;2.07;;
16890;SDS011;8562;52.246;20.966;2022-08-01T03:06:31;2.73;;;2.43;;
16890;SDS011;8562;52.246;20.966;2022-08-01T03:08:57;2.40;;;2.20;;
16890;SDS011;8562;52.246;20.966;2022-08-01T03:11:24;4.20;;;2.27;;
16890;SDS011;8562;52.246;20.966;2022-08-01T03:13:51;2.67;;;2.20;;
16890;SDS011;8562;52.246;20.966;2022-08-01T03:16:18;3.20;;;2.23;;
16890;SDS011;8562;52.246;20.966;2022-08-01T03:18:44;2.53;;;2.33;;
16890;SDS011;8562;52.246;20.966;2022-08-01T03:21:11;3.03;;;2.23;;
16890;SDS011;8562;52.246;20.966;2022-08-01T03:23:38;2.23;;;2.13;;
16890;SDS011;8562;52.246;20.966;2022-08-01T03:26:06;3.80;;;2.27;;
16890;SDS011;8562;52.246;20.966;2022-08-01T03:28:32;1.87;;;1.77;;
16890;SDS011;8562;52.246;20.966;2022-08-01T03:30:59;2.60;;;2.17;;
16890;SDS011;8562;52.246;20.966;2022-08-01T03:33:26;4.43;;;3.07;;
16890;SDS011;8562;52.246;20.966;2022-08-01T03:35:53;5.30;;;2.00;;
16890;SDS011;8562;52.246;20.966;2022-08-01T03:38:21;2.80;;;2.40;;
16890;SDS011;8562;52.246;20.966;2022-08-01T03:43:40;3.53;;;2.50;;
16890;SDS011;8562;52.246;20.966;2022-08-01T03:46:10;5.90;;;2.70;;
16890;SDS011;8562;52.246;20.966;2022-08-01T03:48:39;4.97;;;2.57;;
16890;SDS011;8562;52.246;20.966;2022-08-01T03:51:06;4.00;;;2.37;;
16890;SDS011;8562;52.246;20.966;2022-08-01T03:53:33;2.60;;;2.23;;
16890;SDS011;8562;52.246;20.966;2022-08-01T03:56:00;3.37;;;2.50;;
16890;SDS011;8562;52.246;20.966;2022-08-01T03:58:28;3.00;;;2.70;;
16890;SDS011;8562;52.246;20.966;2022-08-01T04:00:55;2.33;;;2.13;;
16890;SDS011;8562;52.246;20.966;2022-08-01T04:03:22;4.73;;;2.63;;
16890;SDS011;8562;52.246;20.966;2022-08-01T04:05:48;2.53;;;2.33;;
16890;SDS011;8562;52.246;20.966;2022-08-01T04:08:14;3.00;;;2.43;;
16890;SDS011;8562;52.246;20.966;2022-08-01T04:10:40;3.43;;;2.57;;
16890;SDS011;8562;52.246;20.966;2022-08-01T04:13:06;2.90;;;2.60;;
16890;SDS011;8562;52.246;20.966;2022-08-01T04:15:33;3.23;;;2.63;;
16890;SDS011;8562;52.246;20.966;2022-08-01T04:17:59;4.70;;;2.83;;
16890;SDS011;8562;52.246;20.966;2022-08-01T04:20:25;2.77;;;2.50;;
16890;SDS011;8562;52.246;20.966;2022-08-01T04:22:51;2.30;;;2.10;;
16890;SDS011;8562;52.246;20.966;2022-08-01T04:25:19;2.87;;;2.67;;
16890;SDS011;8562;52.246;20.966;2022-08-01T04:27:48;2.73;;;2.43;;
16890;SDS011;8562;52.246;20.966;2022-08-01T04:30:15;2.87;;;2.67;;
16890;SDS011;8562;52.246;20.966;2022-08-01T04:32:42;3.30;;;2.73;;
16890;SDS011;8562;52.246;20.966;2022-08-01T04:35:10;3.30;;;2.77;;
16890;SDS011;8562;52.246;20.966;2022-08-01T04:37:38;3.63;;;3.10;;
16890;SDS011;8562;52.246;20.966;2022-08-01T04:40:05;4.37;;;3.23;;
16890;SDS011;8562;52.246;20.966;2022-08-01T04:42:33;3.87;;;2.90;;
16890;SDS011;8562;52.246;20.966;2022-08-01T04:44:59;4.33;;;2.73;;
16890;SDS011;8562;52.246;20.966;2022-08-01T04:47:25;3.47;;;3.17;;
16890;SDS011;8562;52.246;20.966;2022-08-01T04:49:52;4.47;;;3.07;;
16890;SDS011;8562;52.246;20.966;2022-08-01T04:52:21;3.33;;;3.03;;
16890;SDS011;8562;52.246;20.966;2022-08-01T04:54:47;4.73;;;4.00;;
16890;SDS011;8562;52.246;20.966;2022-08-01T04:57:14;3.47;;;3.17;;
16890;SDS011;8562;52.246;20.966;2022-08-01T04:59:41;3.40;;;2.87;;
16890;SDS011;8562;52.246;20.966;2022-08-01T05:02:15;3.17;;;2.87;;
16890;SDS011;8562;52.246;20.966;2022-08-01T05:04:43;3.53;;;3.23;;
16890;SDS011;8562;52.246;20.966;2022-08-01T05:07:10;3.67;;;3.33;;
16890;SDS011;8562;52.246;20.966;2022-08-01T05:09:36;4.90;;;3.57;;
16890;SDS011;8562;52.246;20.966;2022-08-01T05:12:03;4.07;;;3.63;;
16890;SDS011;8562;52.246;20.966;2022-08-01T05:14:31;6.60;;;2.87;;
16890;SDS011;8562;52.246;20.966;2022-08-01T05:17:01;3.83;;;3.43;;
16890;SDS011;8562;52.246;20.966;2022-08-01T05:19:32;2.87;;;2.57;;
16890;SDS011;8562;52.246;20.966;2022-08-01T05:21:58;3.33;;;2.87;;
16890;SDS011;8562;52.246;20.966;2022-08-01T05:24:28;3.17;;;2.93;;
16890;SDS011;8562;52.246;20.966;2022-08-01T05:26:55;3.50;;;2.93;;
16890;SDS011;8562;52.246;20.966;2022-08-01T05:29:21;3.67;;;3.37;;
16890;SDS011;8562;52.246;20.966;2022-08-01T05:31:47;5.30;;;3.30;;
16890;SDS011;8562;52.246;20.966;2022-08-01T05:34:13;4.77;;;4.10;;
16890;SDS011;8562;52.246;20.966;2022-08-01T05:36:39;4.53;;;3.93;;
16890;SDS011;8562;52.246;20.966;2022-08-01T05:39:06;3.17;;;2.87;;
16890;SDS011;8562;52.246;20.966;2022-08-01T05:41:32;3.93;;;3.53;;
16890;SDS011;8562;52.246;20.966;2022-08-01T05:43:58;3.50;;;2.60;;
16890;SDS011;8562;52.246;20.966;2022-08-01T05:46:25;3.03;;;2.30;;
16890;SDS011;8562;52.246;20.966;2022-08-01T05:48:51;2.80;;;2.60;;
16890;SDS011;8562;52.246;20.966;2022-08-01T05:51:17;2.33;;;2.13;;
16890;SDS011;8562;52.246;20.966;2022-08-01T05:53:43;2.27;;;2.07;;
16890;SDS011;8562;52.246;20.966;2022-08-01T05:56:09;2.03;;;1.90;;
16890;SDS011;8562;52.246;20.966;2022-08-01T05:58:36;2.00;;;1.80;;
16890;SDS011;8562;52.246;20.966;2022-08-01T06:01:02;2.60;;;1.80;;
16890;SDS011;8562;52.246;20.966;2022-08-01T06:03:28;1.97;;;1.73;;
16890;SDS011;8562;52.246;20.966;2022-08-01T06:05:56;1.50;;;1.23;;
16890;SDS011;8562;52.246;20.966;2022-08-01T06:08:22;2.20;;;2.00;;
16890;SDS011;8562;52.246;20.966;2022-08-01T06:10:49;1.70;;;1.60;;
16890;SDS011;8562;52.246;20.966;2022-08-01T06:13:15;2.53;;;1.60;;
16890;SDS011;8562;52.246;20.966;2022-08-01T06:15:41;3.63;;;2.63;;
16890;SDS011;8562;52.246;20.966;2022-08-01T06:18:07;2.40;;;2.20;;
16890;SDS011;8562;52.246;20.966;2022-08-01T06:20:33;1.60;;;1.47;;
16890;SDS011;8562;52.246;20.966;2022-08-01T06:22:59;1.65;;;1.42;;
16890;SDS011;8562;52.246;20.966;2022-08-01T06:25:25;1.45;;;1.20;;
16890;SDS011;8562;52.246;20.966;2022-08-01T06:27:52;3.00;;;1.40;;
16890;SDS011;8562;52.246;20.966;2022-08-01T06:30:19;1.38;;;1.27;;
16890;SDS011;8562;52.246;20.966;2022-08-01T06:32:45;2.30;;;1.40;;
16890;SDS011;8562;52.246;20.966;2022-08-01T06:35:13;1.85;;;1.60;;
16890;SDS011;8562;52.246;20.966;2022-08-01T06:37:39;3.00;;;1.75;;
16890;SDS011;8562;52.246;20.966;2022-08-01T06:40:06;1.48;;;1.33;;
16890;SDS011;8562;52.246;20.966;2022-08-01T06:42:32;1.10;;;0.98;;
16890;SDS011;8562;52.246;20.966;2022-08-01T06:45:06;2.88;;;1.33;;
16890;SDS011;8562;52.246;20.966;2022-08-01T06:47:33;1.88;;;1.67;;
16890;SDS011;8562;52.246;20.966;2022-08-01T06:49:59;2.87;;;1.47;;
16890;SDS011;8562;52.246;20.966;2022-08-01T06:52:25;4.37;;;1.20;;
16890;SDS011;8562;52.246;20.966;2022-08-01T06:54:51;2.03;;;1.10;;
16890;SDS011;8562;52.246;20.966;2022-08-01T06:57:18;1.53;;;1.43;;
16890;SDS011;8562;52.246;20.966;2022-08-01T06:59:44;1.83;;;1.40;;
16890;SDS011;8562;52.246;20.966;2022-08-01T07:02:10;1.97;;;1.50;;
16890;SDS011;8562;52.246;20.966;2022-08-01T07:04:36;1.33;;;1.23;;
16890;SDS011;8562;52.246;20.966;2022-08-01T07:07:02;2.07;;;1.30;;
16890;SDS011;8562;52.246;20.966;2022-08-01T07:09:29;1.20;;;1.10;;
16890;SDS011;8562;52.246;20.966;2022-08-01T07:11:55;1.60;;;1.30;;
16890;SDS011;8562;52.246;20.966;2022-08-01T07:14:22;1.40;;;1.00;;
16890;SDS011;8562;52.246;20.966;2022-08-01T07:16:48;1.93;;;1.17;;
16890;SDS011;8562;52.246;20.966;2022-08-01T07:19:14;5.33;;;1.40;;
16890;SDS011;8562;52.246;20.966;2022-08-01T07:21:40;2.07;;;1.60;;
16890;SDS011;8562;52.246;20.966;2022-08-01T07:24:07;1.50;;;1.37;;
16890;SDS011;8562;52.246;20.966;2022-08-01T07:26:34;2.83;;;1.37;;
16890;SDS011;8562;52.246;20.966;2022-08-01T07:29:00;2.47;;;1.57;;
16890;SDS011;8562;52.246;20.966;2022-08-01T07:31:27;3.40;;;1.27;;
16890;SDS011;8562;52.246;20.966;2022-08-01T07:33:54;2.57;;;1.07;;
16890;SDS011;8562;52.246;20.966;2022-08-01T07:36:20;1.60;;;1.03;;
16890;SDS011;8562;52.246;20.966;2022-08-01T07:38:46;2.30;;;1.47;;
16890;SDS011;8562;52.246;20.966;2022-08-01T07:41:12;2.10;;;1.33;;
16890;SDS011;8562;52.246;20.966;2022-08-01T07:43:38;3.87;;;1.13;;
16890;SDS011;8562;52.246;20.966;2022-08-01T07:46:05;2.43;;;1.37;;
16890;SDS011;8562;52.246;20.966;2022-08-01T07:48:31;3.20;;;1.20;;
16890;SDS011;8562;52.246;20.966;2022-08-01T07:50:57;1.77;;;1.13;;
16890;SDS011;8562;52.246;20.966;2022-08-01T07:53:23;1.40;;;1.30;;
16890;SDS011;8562;52.246;20.966;2022-08-01T07:55:49;1.27;;;0.90;;
16890;SDS011;8562;52.246;20.966;2022-08-01T07:58:16;3.50;;;0.87;;
16890;SDS011;8562;52.246;20.966;2022-08-01T08:00:42;1.13;;;1.03;;
16890;SDS011;8562;52.246;20.966;2022-08-01T08:03:08;1.30;;;1.10;;
16890;SDS011;8562;52.246;20.966;2022-08-01T08:05:35;3.67;;;0.83;;
16890;SDS011;8562;52.246;20.966;2022-08-01T08:08:02;1.07;;;0.87;;
16890;SDS011;8562;52.246;20.966;2022-08-01T08:10:30;0.80;;;0.80;;
16890;SDS011;8562;52.246;20.966;2022-08-01T08:12:56;2.57;;;1.00;;
16890;SDS011;8562;52.246;20.966;2022-08-01T08:15:22;1.20;;;1.10;;
16890;SDS011;8562;52.246;20.966;2022-08-01T08:17:48;2.30;;;0.80;;
16890;SDS011;8562;52.246;20.966;2022-08-01T08:20:15;1.93;;;0.80;;
16890;SDS011;8562;52.246;20.966;2022-08-01T08:22:41;1.30;;;1.20;;
16890;SDS011;8562;52.246;20.966;2022-08-01T08:25:07;1.20;;;0.87;;
16890;SDS011;8562;52.246;20.966;2022-08-01T08:27:34;0.90;;;0.80;;
16890;SDS011;8562;52.246;20.966;2022-08-01T08:30:01;1.30;;;1.20;;
16890;SDS011;8562;52.246;20.966;2022-08-01T08:32:27;1.53;;;1.10;;
16890;SDS011;8562;52.246;20.966;2022-08-01T08:34:53;0.80;;;0.80;;
16890;SDS011;8562;52.246;20.966;2022-08-01T08:37:19;1.33;;;1.17;;
16890;SDS011;8562;52.246;20.966;2022-08-01T08:39:45;2.97;;;1.03;;
16890;SDS011;8562;52.246;20.966;2022-08-01T08:42:12;1.33;;;1.07;;
16890;SDS011;8562;52.246;20.966;2022-08-01T08:44:40;1.27;;;0.93;;
16890;SDS011;8562;52.246;20.966;2022-08-01T08:47:06;1.30;;;1.00;;
16890;SDS011;8562;52.246;20.966;2022-08-01T08:49:33;1.27;;;1.13;;
16890;SDS011;8562;52.246;20.966;2022-08-01T08:52:01;1.50;;;1.00;;
16890;SDS011;8562;52.246;20.966;2022-08-01T08:54:28;2.57;;;0.90;;
16890;SDS011;8562;52.246;20.966;2022-08-01T08:56:55;1.07;;;0.83;;
16890;SDS011;8562;52.246;20.966;2022-08-01T08:59:21;2.40;;;1.17;;
16890;SDS011;8562;52.246;20.966;2022-08-01T09:01:50;2.87;;;1.50;;
16890;SDS011;8562;52.246;20.966;2022-08-01T09:04:17;1.20;;;1.07;;
16890;SDS011;8562;52.246;20.966;2022-08-01T09:06:43;0.80;;;0.80;;
16890;SDS011;8562;52.246;20.966;2022-08-01T09:09:10;1.87;;;1.00;;
16890;SDS011;8562;52.246;20.966;2022-08-01T09:11:36;1.40;;;1.20;;
16890;SDS011;8562;52.246;20.966;2022-08-01T09:14:10;5.07;;;1.30;;
16890;SDS011;8562;52.246;20.966;2022-08-01T09:16:38;1.00;;;0.80;;
16890;SDS011;8562;52.246;20.966;2022-08-01T09:19:18;0.70;;;0.70;;
16890;SDS011;8562;52.246;20.966;2022-08-01T09:21:58;1.07;;;0.90;;
16890;SDS011;8562;52.246;20.966;2022-08-01T09:24:27;1.37;;;1.10;;
16890;SDS011;8562;52.246;20.966;2022-08-01T09:26:54;1.47;;;0.90;;
16890;SDS011;8562;52.246;20.966;2022-08-01T09:29:22;2.30;;;1.03;;
16890;SDS011;8562;52.246;20.966;2022-08-01T09:31:49;1.53;;;0.80;;
16890;SDS011;8562;52.246;20.966;2022-08-01T09:34:22;1.17;;;0.83;;
16890;SDS011;8562;52.246;20.966;2022-08-01T09:36:53;1.87;;;1.00;;
16890;SDS011;8562;52.246;20.966;2022-08-01T09:41:50;1.33;;;1.00;;
16890;SDS011;8562;52.246;20.966;2022-08-01T09:44:17;0.83;;;0.83;;
16890;SDS011;8562;52.246;20.966;2022-08-01T09:46:50;3.30;;;1.17;;
16890;SDS011;8562;52.246;20.966;2022-08-01T09:49:26;1.13;;;1.00;;
16890;SDS011;8562;52.246;20.966;2022-08-01T09:51:52;2.73;;;0.87;;
16890;SDS011;8562;52.246;20.966;2022-08-01T09:54:29;1.50;;;1.00;;
16890;SDS011;8562;52.246;20.966;2022-08-01T09:56:55;1.10;;;1.00;;
16890;SDS011;8562;52.246;20.966;2022-08-01T09:59:35;1.27;;;1.00;;
16890;SDS011;8562;52.246;20.966;2022-08-01T10:02:02;1.27;;;0.93;;
16890;SDS011;8562;52.246;20.966;2022-08-01T10:04:29;1.13;;;1.03;;
16890;SDS011;8562;52.246;20.966;2022-08-01T10:07:04;1.83;;;1.30;;
16890;SDS011;8562;52.246;20.966;2022-08-01T10:09:32;2.13;;;0.93;;
16890;SDS011;8562;52.246;20.966;2022-08-01T10:12:02;1.73;;;1.10;;
16890;SDS011;8562;52.246;20.966;2022-08-01T10:14:29;3.20;;;1.30;;
16890;SDS011;8562;52.246;20.966;2022-08-01T10:16:56;1.53;;;1.33;;
16890;SDS011;8562;52.246;20.966;2022-08-01T10:19:24;1.07;;;0.97;;
16890;SDS011;8562;52.246;20.966;2022-08-01T10:21:54;0.97;;;0.93;;
16890;SDS011;8562;52.246;20.966;2022-08-01T10:24:21;1.33;;;1.23;;
16890;SDS011;8562;52.246;20.966;2022-08-01T10:26:48;0.93;;;0.80;;
16890;SDS011;8562;52.246;20.966;2022-08-01T10:29:15;1.87;;;1.10;;
16890;SDS011;8562;52.246;20.966;2022-08-01T10:31:44;1.07;;;1.00;;
16890;SDS011;8562;52.246;20.966;2022-08-01T10:34:10;1.33;;;1.10;;
16890;SDS011;8562;52.246;20.966;2022-08-01T10:36:37;0.93;;;0.90;;
16890;SDS011;8562;52.246;20.966;2022-08-01T10:39:06;3.33;;;1.23;;
16890;SDS011;8562;52.246;20.966;2022-08-01T10:41:33;1.20;;;1.10;;
16890;SDS011;8562;52.246;20.966;2022-08-01T10:44:00;3.47;;;1.73;;
16890;SDS011;8562;52.246;20.966;2022-08-01T10:46:28;1.57;;;1.47;;
16890;SDS011;8562;52.246;20.966;2022-08-01T10:49:11;1.97;;;1.00;;
16890;SDS011;8562;52.246;20.966;2022-08-01T10:51:39;1.53;;;1.00;;
16890;SDS011;8562;52.246;20.966;2022-08-01T10:54:06;1.37;;;1.10;;
16890;SDS011;8562;52.246;20.966;2022-08-01T10:59:05;1.63;;;1.30;;
16890;SDS011;8562;52.246;20.966;2022-08-01T11:01:32;1.53;;;1.43;;
16890;SDS011;8562;52.246;20.966;2022-08-01T11:06:25;1.10;;;0.90;;
16890;SDS011;8562;52.246;20.966;2022-08-01T11:08:52;2.93;;;0.90;;
16890;SDS011;8562;52.246;20.966;2022-08-01T11:11:19;1.13;;;0.90;;
16890;SDS011;8562;52.246;20.966;2022-08-01T11:16:29;1.10;;;1.03;;
16890;SDS011;8562;52.246;20.966;2022-08-01T11:18:55;6.50;;;1.30;;
16890;SDS011;8562;52.246;20.966;2022-08-01T11:21:22;2.10;;;1.10;;
16890;SDS011;8562;52.246;20.966;2022-08-01T11:23:51;1.00;;;0.97;;
16890;SDS011;8562;52.246;20.966;2022-08-01T11:26:18;1.90;;;1.20;;
16890;SDS011;8562;52.246;20.966;2022-08-01T11:28:46;1.27;;;1.10;;
16890;SDS011;8562;52.246;20.966;2022-08-01T11:31:31;0.77;;;0.70;;
16890;SDS011;8562;52.246;20.966;2022-08-01T11:33:58;1.03;;;1.03;;
16890;SDS011;8562;52.246;20.966;2022-08-01T11:36:24;3.13;;;1.10;;
16890;SDS011;8562;52.246;20.966;2022-08-01T11:41:32;1.10;;;1.03;;
16890;SDS011;8562;52.246;20.966;2022-08-01T11:44:09;1.23;;;1.13;;
16890;SDS011;8562;52.246;20.966;2022-08-01T11:46:48;1.50;;;1.10;;
16890;SDS011;8562;52.246;20.966;2022-08-01T11:49:42;0.97;;;0.93;;
16890;SDS011;8562;52.246;20.966;2022-08-01T11:52:12;3.00;;;1.27;;
16890;SDS011;8562;52.246;20.966;2022-08-01T11:54:44;1.20;;;1.10;;
16890;SDS011;8562;52.246;20.966;2022-08-01T11:57:12;1.77;;;1.67;;
16890;SDS011;8562;52.246;20.966;2022-08-01T12:02:14;1.10;;;1.00;;
16890;SDS011;8562;52.246;20.966;2022-08-01T12:07:30;1.53;;;1.43;;
16890;SDS011;8562;52.246;20.966;2022-08-01T12:12:23;2.00;;;1.80;;
16890;SDS011;8562;52.246;20.966;2022-08-01T12:14:53;2.37;;;1.80;;
16890;SDS011;8562;52.246;20.966;2022-08-01T12:17:26;1.60;;;1.50;;
16890;SDS011;8562;52.246;20.966;2022-08-01T12:19:53;1.40;;;1.30;;
16890;SDS011;8562;52.246;20.966;2022-08-01T12:22:21;3.03;;;1.70;;
16890;SDS011;8562;52.246;20.966;2022-08-01T12:24:47;3.07;;;1.40;;
16890;SDS011;8562;52.246;20.966;2022-08-01T12:27:23;1.60;;;1.20;;
16890;SDS011;8562;52.246;20.966;2022-08-01T12:29:50;2.50;;;1.10;;
16890;SDS011;8562;52.246;20.966;2022-08-01T12:32:29;2.97;;;1.50;;
16890;SDS011;8562;52.246;20.966;2022-08-01T12:34:56;2.47;;;1.50;;
16890;SDS011;8562;52.246;20.966;2022-08-01T12:37:23;2.00;;;1.50;;
16890;SDS011;8562;52.246;20.966;2022-08-01T12:39:49;1.63;;;1.30;;
16890;SDS011;8562;52.246;20.966;2022-08-01T12:42:15;1.33;;;1.23;;
16890;SDS011;8562;52.246;20.966;2022-08-01T12:44:42;2.13;;;1.40;;
16890;SDS011;8562;52.246;20.966;2022-08-01T12:47:09;1.53;;;1.40;;
16890;SDS011;8562;52.246;20.966;2022-08-01T12:49:36;2.43;;;1.63;;
16890;SDS011;8562;52.246;20.966;2022-08-01T12:52:03;1.60;;;1.43;;
16890;SDS011;8562;52.246;20.966;2022-08-01T12:54:29;1.67;;;1.57;;
16890;SDS011;8562;52.246;20.966;2022-08-01T12:56:56;1.97;;;1.53;;
16890;SDS011;8562;52.246;20.966;2022-08-01T12:59:24;2.93;;;1.40;;
16890;SDS011;8562;52.246;20.966;2022-08-01T13:01:53;1.53;;;1.43;;
16890;SDS011;8562;52.246;20.966;2022-08-01T13:04:20;2.40;;;1.70;;
16890;SDS011;8562;52.246;20.966;2022-08-01T13:06:47;2.07;;;1.87;;
16890;SDS011;8562;52.246;20.966;2022-08-01T13:09:13;1.60;;;1.50;;
16890;SDS011;8562;52.246;20.966;2022-08-01T13:11:40;2.63;;;1.90;;
16890;SDS011;8562;52.246;20.966;2022-08-01T13:14:06;2.30;;;1.77;;
16890;SDS011;8562;52.246;20.966;2022-08-01T13:16:34;3.73;;;2.00;;
16890;SDS011;8562;52.246;20.966;2022-08-01T13:19:10;1.73;;;1.60;;
16890;SDS011;8562;52.246;20.966;2022-08-01T13:21:37;2.47;;;2.27;;
16890;SDS011;8562;52.246;20.966;2022-08-01T13:24:06;6.53;;;2.10;;
16890;SDS011;8562;52.246;20.966;2022-08-01T13:29:07;2.60;;;2.23;;
16890;SDS011;8562;52.246;20.966;2022-08-01T13:31:34;3.13;;;2.20;;
16890;SDS011;8562;52.246;20.966;2022-08-01T13:34:01;2.43;;;2.23;;
16890;SDS011;8562;52.246;20.966;2022-08-01T13:36:27;4.67;;;2.80;;
16890;SDS011;8562;52.246;20.966;2022-08-01T13:38:55;2.77;;;2.57;;
16890;SDS011;8562;52.246;20.966;2022-08-01T13:41:39;3.20;;;2.90;;
16890;SDS011;8562;52.246;20.966;2022-08-01T13:44:05;3.03;;;2.80;;
16890;SDS011;8562;52.246;20.966;2022-08-01T13:46:34;3.10;;;2.80;;
16890;SDS011;8562;52.246;20.966;2022-08-01T13:49:00;3.07;;;2.87;;
16890;SDS011;8562;52.246;20.966;2022-08-01T13:51:27;3.13;;;2.70;;
16890;SDS011;8562;52.246;20.966;2022-08-01T13:53:53;3.20;;;2.83;;
16890;SDS011;8562;52.246;20.966;2022-08-01T13:56:19;3.20;;;2.73;;
16890;SDS011;8562;52.246;20.966;2022-08-01T13:58:46;3.10;;;2.90;;
16890;SDS011;8562;52.246;20.966;2022-08-01T14:01:12;3.13;;;2.83;;
16890;SDS011;8562;52.246;20.966;2022-08-01T14:03:38;4.37;;;2.93;;
16890;SDS011;8562;52.246;20.966;2022-08-01T14:06:04;2.70;;;2.47;;
16890;SDS011;8562;52.246;20.966;2022-08-01T14:08:31;3.10;;;2.80;;
16890;SDS011;8562;52.246;20.966;2022-08-01T14:10:57;3.27;;;2.90;;
16890;SDS011;8562;52.246;20.966;2022-08-01T14:13:24;3.47;;;2.40;;
16890;SDS011;8562;52.246;20.966;2022-08-01T14:15:50;4.60;;;3.00;;
16890;SDS011;8562;52.246;20.966;2022-08-01T14:18:16;1.90;;;1.80;;
16890;SDS011;8562;52.246;20.966;2022-08-01T14:20:44;2.63;;;2.43;;
16890;SDS011;8562;52.246;20.966;2022-08-01T14:23:10;2.17;;;2.00;;
16890;SDS011;8562;52.246;20.966;2022-08-01T14:25:37;2.30;;;2.10;;
16890;SDS011;8562;52.246;20.966;2022-08-01T14:28:04;2.30;;;1.50;;
16890;SDS011;8562;52.246;20.966;2022-08-01T14:30:31;2.40;;;2.20;;
16890;SDS011;8562;52.246;20.966;2022-08-01T14:32:57;2.03;;;1.83;;
16890;SDS011;8562;52.246;20.966;2022-08-01T14:35:23;2.00;;;1.90;;
16890;SDS011;8562;52.246;20.966;2022-08-01T14:37:50;1.67;;;1.50;;
16890;SDS011;8562;52.246;20.966;2022-08-01T14:40:16;2.30;;;1.87;;
16890;SDS011;8562;52.246;20.966;2022-08-01T14:42:42;2.40;;;2.20;;
16890;SDS011;8562;52.246;20.966;2022-08-01T14:45:12;2.37;;;1.73;;
16890;SDS011;8562;52.246;20.966;2022-08-01T14:47:38;2.47;;;2.10;;
16890;SDS011;8562;52.246;20.966;2022-08-01T14:50:06;1.90;;;1.80;;
16890;SDS011;8562;52.246;20.966;2022-08-01T14:52:33;2.70;;;1.77;;
16890;SDS011;8562;52.246;20.966;2022-08-01T14:54:59;2.43;;;2.20;;
16890;SDS011;8562;52.246;20.966;2022-08-01T14:57:26;2.30;;;2.10;;
16890;SDS011;8562;52.246;20.966;2022-08-01T14:59:52;2.57;;;2.37;;
16890;SDS011;8562;52.246;20.966;2022-08-01T15:02:18;2.30;;;2.10;;
16890;SDS011;8562;52.246;20.966;2022-08-01T15:04:45;2.40;;;2.20;;
16890;SDS011;8562;52.246;20.966;2022-08-01T15:07:11;2.60;;;2.40;;
16890;SDS011;8562;52.246;20.966;2022-08-01T15:09:37;2.40;;;2.20;;
16890;SDS011;8562;52.246;20.966;2022-08-01T15:12:03;2.33;;;2.13;;
16890;SDS011;8562;52.246;20.966;2022-08-01T15:14:29;2.47;;;2.27;;
16890;SDS011;8562;52.246;20.966;2022-08-01T15:19:40;2.20;;;2.00;;
16890;SDS011;8562;52.246;20.966;2022-08-01T15:22:06;2.13;;;1.90;;
16890;SDS011;8562;52.246;20.966;2022-08-01T15:24:32;2.60;;;2.40;;